createdAt,value
2018-03-04T00:02:16.485Z,83.70
2018-03-04T00:04:42.728Z,82.50
2018-03-04T00:07:12.028Z,83.10
2018-03-04T00:09:39.232Z,83.00
2018-03-04T00:12:05.462Z,83.00
2018-03-04T00:14:31.849Z,83.00
2018-03-04T00:26:43.065Z,83.00
2018-03-04T00:29:11.185Z,82.50
2018-03-04T00:31:38.284Z,82.50
2018-03-04T00:34:06.347Z,82.50
2018-03-04T00:36:33.494Z,83.10
2018-03-04T00:39:00.722Z,82.50
2018-03-04T00:41:27.768Z,83.00
2018-03-04T00:43:54.796Z,83.00
2018-03-04T00:46:21.973Z,83.00
2018-03-04T00:48:50.330Z,83.00
2018-03-04T00:51:16.939Z,83.00
2018-03-04T00:53:43.141Z,83.00
2018-03-04T00:56:10.279Z,83.00
2018-03-04T00:58:37.168Z,83.00
2018-03-04T01:01:04.750Z,82.50
2018-03-04T01:03:30.991Z,82.50
2018-03-04T01:05:58.795Z,83.10
2018-03-04T01:08:25.092Z,83.10
2018-03-04T01:10:52.287Z,83.00
2018-03-04T01:13:19.427Z,83.10
2018-03-04T01:15:47.466Z,83.10
2018-03-04T01:18:15.593Z,83.00
2018-03-04T01:20:42.418Z,83.60
2018-03-04T01:23:09.282Z,83.40
2018-03-04T01:25:36.216Z,83.20
2018-03-04T01:28:03.427Z,83.40
2018-03-04T01:30:31.208Z,83.20
2018-03-04T01:32:57.447Z,83.20
2018-03-04T01:35:24.078Z,83.00
2018-03-04T01:37:50.406Z,83.00
2018-03-04T01:40:17.411Z,83.30
2018-03-04T01:42:43.662Z,83.30
2018-03-04T01:45:10.621Z,83.10
2018-03-04T01:47:37.547Z,83.10
2018-03-04T01:50:05.641Z,83.10
2018-03-04T01:52:32.628Z,83.50
2018-03-04T01:54:58.897Z,83.50
2018-03-04T01:57:25.124Z,83.80
2018-03-04T01:59:52.175Z,83.60
2018-03-04T02:02:18.363Z,83.10
2018-03-04T02:14:29.636Z,83.60
2018-03-04T02:16:56.698Z,84.00
2018-03-04T02:19:24.279Z,84.30
2018-03-04T02:21:51.290Z,84.70
2018-03-04T02:24:17.509Z,84.40
2018-03-04T02:26:44.068Z,84.00
2018-03-04T02:29:10.240Z,84.60
2018-03-04T02:31:36.468Z,84.70
2018-03-04T02:34:02.971Z,84.80
2018-03-04T02:36:30.024Z,85.60
2018-03-04T02:38:57.049Z,85.50
2018-03-04T02:41:24.151Z,85.50
2018-03-04T02:43:51.891Z,84.80
2018-03-04T02:46:18.801Z,85.20
2018-03-04T02:48:48.773Z,85.20
2018-03-04T02:51:15.044Z,84.80
2018-03-04T02:53:42.070Z,84.70
2018-03-04T02:56:08.243Z,85.90
2018-03-04T02:58:35.405Z,85.10
2018-03-04T03:01:01.631Z,85.70
2018-03-04T03:03:28.652Z,85.00
2018-03-04T03:05:54.841Z,85.00
2018-03-04T03:08:21.035Z,85.10
2018-03-04T03:10:48.035Z,84.80
2018-03-04T03:13:14.964Z,84.80
2018-03-04T03:15:41.553Z,84.80
2018-03-04T03:18:09.208Z,84.70
2018-03-04T03:20:35.470Z,84.90
2018-03-04T03:23:01.875Z,85.20
2018-03-04T03:25:29.022Z,85.70
2018-03-04T03:27:55.235Z,85.20
2018-03-04T03:30:22.261Z,85.30
2018-03-04T03:32:48.533Z,85.70
2018-03-04T03:35:15.780Z,85.30
2018-03-04T03:37:42.079Z,85.50
2018-03-04T03:40:08.237Z,85.50
2018-03-04T03:42:35.284Z,85.60
2018-03-04T03:45:03.480Z,85.40
2018-03-04T03:47:30.434Z,85.60
2018-03-04T03:49:58.383Z,86.20
2018-03-04T03:52:26.311Z,86.20
2018-03-04T04:04:38.510Z,85.50
2018-03-04T04:07:06.217Z,85.40
2018-03-04T04:09:32.397Z,85.60
2018-03-04T04:12:00.133Z,85.80
2018-03-04T04:14:28.667Z,86.50
2018-03-04T04:16:55.811Z,85.70
2018-03-04T04:19:22.619Z,86.80
2018-03-04T04:21:48.847Z,86.40
2018-03-04T04:24:15.821Z,86.80
2018-03-04T04:26:43.953Z,87.10
2018-03-04T04:29:10.979Z,86.00
2018-03-04T04:31:38.081Z,86.70
2018-03-04T04:34:04.267Z,86.50
2018-03-04T04:36:33.274Z,86.60
2018-03-04T04:39:00.451Z,86.70
2018-03-04T04:41:27.013Z,86.50
2018-03-04T04:43:53.354Z,86.40
2018-03-04T04:56:05.361Z,87.80
2018-03-04T04:58:31.842Z,87.10
2018-03-04T05:00:58.062Z,87.00
2018-03-04T05:03:25.309Z,86.60
2018-03-04T05:05:51.571Z,87.10
2018-03-04T05:08:19.406Z,87.90
2018-03-04T05:10:46.456Z,87.20
2018-03-04T05:13:12.642Z,87.20
2018-03-04T05:15:41.638Z,87.60
2018-03-04T05:18:09.772Z,87.30
2018-03-04T05:20:37.541Z,87.30
2018-03-04T05:23:04.510Z,87.80
2018-03-04T05:25:30.755Z,87.80
2018-03-04T05:27:58.007Z,88.00
2018-03-04T05:30:25.024Z,87.30
2018-03-04T05:32:51.978Z,87.00
2018-03-04T05:35:19.078Z,87.70
2018-03-04T05:37:45.283Z,87.70
2018-03-04T05:40:11.506Z,87.00
2018-03-04T05:42:37.741Z,87.30
2018-03-04T05:45:08.147Z,86.60
2018-03-04T05:47:36.142Z,87.20
2018-03-04T05:50:02.931Z,87.50
2018-03-04T05:52:30.135Z,87.60
2018-03-04T06:04:41.477Z,87.80
2018-03-04T06:07:07.774Z,88.40
2018-03-04T06:09:34.782Z,88.00
2018-03-04T06:12:00.995Z,88.00
2018-03-04T06:14:27.221Z,87.70
2018-03-04T06:16:54.436Z,88.00
2018-03-04T06:19:21.642Z,88.20
2018-03-04T06:21:48.735Z,88.10
2018-03-04T06:34:00.936Z,89.50
2018-03-04T06:36:27.241Z,89.00
2018-03-04T06:38:54.181Z,88.80
2018-03-04T06:41:21.214Z,89.10
2018-03-04T06:43:47.490Z,89.10
2018-03-04T06:46:13.994Z,89.60
2018-03-04T06:48:42.655Z,90.00
2018-03-04T07:04:09.720Z,90.10
2018-03-04T07:06:38.231Z,90.30
2018-03-04T07:09:04.532Z,90.30
2018-03-04T07:11:31.748Z,90.20
2018-03-04T07:13:59.130Z,90.30
2018-03-04T07:16:26.861Z,90.30
2018-03-04T07:18:53.085Z,90.20
2018-03-04T07:21:19.805Z,90.20
2018-03-04T07:23:46.009Z,90.20
2018-03-04T07:26:14.380Z,90.40
2018-03-04T07:28:42.648Z,90.50
2018-03-04T07:31:10.225Z,90.50
2018-03-04T07:33:37.874Z,90.50
2018-03-04T07:36:04.049Z,90.20
2018-03-04T07:38:30.232Z,89.80
2018-03-04T07:40:57.080Z,89.80
2018-03-04T07:43:24.083Z,90.50
2018-03-04T07:45:50.329Z,90.60
2018-03-04T07:48:17.541Z,89.80
2018-03-04T07:50:43.741Z,90.10
2018-03-04T07:53:10.630Z,90.40
2018-03-04T07:55:37.877Z,90.40
2018-03-04T07:58:04.848Z,90.40
2018-03-04T08:00:32.058Z,90.60
2018-03-04T08:02:58.287Z,90.40
2018-03-04T08:05:25.483Z,90.60
2018-03-04T08:07:51.742Z,90.60
2018-03-04T08:20:03.029Z,90.70
2018-03-04T08:22:31.110Z,90.20
2018-03-04T08:25:09.598Z,90.40
2018-03-04T08:27:49.046Z,90.00
2018-03-04T08:30:15.420Z,90.50
2018-03-04T08:32:41.715Z,90.20
2018-03-04T08:35:08.809Z,90.10
2018-03-04T08:37:35.868Z,90.00
2018-03-04T08:40:03.033Z,89.80
2018-03-04T08:42:30.104Z,90.10
2018-03-04T08:44:56.952Z,90.10
2018-03-04T08:47:23.223Z,90.20
2018-03-04T08:49:49.870Z,90.60
2018-03-04T08:52:16.115Z,90.30
2018-03-04T08:54:42.340Z,90.50
2018-03-04T08:57:10.984Z,90.80
2018-03-04T08:59:38.108Z,90.20
2018-03-04T09:02:04.353Z,90.70
2018-03-04T09:04:30.645Z,90.80
2018-03-04T09:06:57.754Z,90.70
2018-03-04T09:09:24.805Z,91.00
2018-03-04T09:11:51.804Z,90.80
2018-03-04T09:14:18.794Z,90.80
2018-03-04T09:16:45.615Z,90.80
2018-03-04T09:19:13.062Z,90.80
2018-03-04T09:21:40.137Z,90.60
2018-03-04T09:24:07.173Z,90.30
2018-03-04T09:26:34.149Z,90.30
2018-03-04T09:29:01.851Z,89.80
2018-03-04T09:31:29.627Z,89.60
2018-03-04T09:33:56.765Z,90.00
2018-03-04T09:36:25.751Z,89.80
2018-03-04T09:38:53.457Z,89.80
2018-03-04T09:41:19.847Z,89.40
2018-03-04T09:43:46.141Z,88.90
2018-03-04T09:46:12.407Z,89.00
2018-03-04T09:48:38.812Z,88.30
2018-03-04T09:51:06.674Z,88.80
2018-03-04T09:53:33.684Z,88.70
2018-03-04T09:55:59.983Z,88.40
2018-03-04T09:58:26.424Z,88.30
2018-03-04T10:00:53.682Z,88.00
2018-03-04T10:03:19.934Z,88.00
2018-03-04T10:05:48.506Z,88.20
2018-03-04T10:08:17.284Z,87.60
2018-03-04T10:10:45.959Z,87.40
2018-03-04T10:13:12.172Z,87.30
2018-03-04T10:15:38.467Z,86.10
2018-03-04T10:18:04.717Z,86.10
2018-03-04T10:20:30.950Z,86.60
2018-03-04T10:22:58.064Z,85.00
2018-03-04T10:25:25.121Z,85.00
2018-03-04T10:27:51.446Z,84.90
2018-03-04T10:30:17.960Z,85.40
2018-03-04T10:32:46.149Z,85.70
2018-03-04T10:35:12.446Z,85.80
2018-03-04T10:37:39.417Z,85.10
2018-03-04T10:40:06.647Z,85.10
2018-03-04T10:42:34.429Z,84.80
2018-03-04T10:45:02.941Z,84.70
2018-03-04T10:47:30.194Z,84.70
2018-03-04T10:49:56.428Z,83.60
2018-03-04T10:52:23.475Z,82.30
2018-03-04T10:54:49.761Z,82.70
2018-03-04T10:57:17.115Z,81.60
2018-03-04T10:59:43.435Z,81.60
2018-03-04T11:02:15.794Z,84.70
2018-03-04T11:04:43.804Z,78.20
2018-03-04T11:07:10.807Z,73.50
2018-03-04T11:09:38.064Z,73.40
2018-03-04T11:12:04.278Z,74.60
2018-03-04T11:14:30.614Z,75.50
2018-03-04T11:16:56.842Z,76.80
2018-03-04T11:19:24.009Z,77.50
2018-03-04T11:21:50.274Z,76.30
2018-03-04T11:24:17.210Z,76.80
2018-03-04T11:26:43.505Z,76.80
2018-03-04T11:29:09.732Z,75.00
2018-03-04T11:31:36.329Z,75.70
2018-03-04T11:34:03.282Z,76.20
2018-03-04T11:36:29.641Z,76.20
2018-03-04T11:38:55.927Z,76.50
2018-03-04T11:41:22.922Z,76.80
2018-03-04T11:43:49.143Z,76.70
2018-03-04T11:46:15.429Z,76.00
2018-03-04T11:48:42.425Z,72.90
2018-03-04T11:51:09.174Z,68.00
2018-03-04T11:53:35.430Z,67.60
2018-03-04T11:56:05.863Z,56.20
2018-03-04T11:58:32.122Z,56.60
2018-03-04T12:00:58.370Z,55.40
2018-03-04T12:03:25.560Z,54.70
2018-03-04T12:05:51.756Z,53.90
2018-03-04T12:08:18.016Z,53.10
2018-03-04T12:10:45.003Z,52.00
2018-03-04T12:13:12.050Z,46.90
2018-03-04T12:15:39.036Z,44.10
2018-03-04T12:18:05.383Z,43.90
2018-03-04T12:20:31.670Z,43.60
2018-03-04T12:22:58.814Z,43.60
2018-03-04T12:25:25.069Z,44.20
2018-03-04T12:27:52.159Z,45.80
2018-03-04T12:30:18.400Z,46.40
2018-03-04T12:32:45.139Z,46.60
2018-03-04T12:35:11.376Z,47.70
2018-03-04T12:37:39.563Z,47.10
2018-03-04T12:40:06.446Z,47.10
2018-03-04T12:42:33.624Z,47.70
2018-03-04T12:44:59.929Z,46.90
2018-03-04T12:47:26.151Z,45.10
2018-03-04T12:49:52.370Z,44.60
2018-03-04T12:52:18.666Z,44.00
2018-03-04T12:54:45.688Z,44.40
2018-03-04T12:57:11.948Z,43.10
2018-03-04T12:59:38.901Z,43.50
2018-03-04T13:02:05.910Z,43.70
2018-03-04T13:04:32.156Z,43.60
2018-03-04T13:06:58.392Z,43.70
2018-03-04T13:09:25.422Z,44.70
2018-03-04T13:11:51.637Z,44.20
2018-03-04T13:14:17.839Z,43.80
2018-03-04T13:16:44.291Z,43.60
2018-03-04T13:19:10.548Z,44.00
2018-03-04T13:21:37.344Z,44.50
2018-03-04T13:24:03.605Z,44.00
2018-03-04T13:26:29.836Z,45.00
2018-03-04T13:28:56.063Z,45.30
2018-03-04T13:31:22.367Z,46.00
2018-03-04T13:33:48.576Z,46.30
2018-03-04T13:36:14.856Z,46.80
2018-03-04T13:38:42.679Z,47.20
2018-03-04T13:41:09.018Z,47.30
2018-03-04T13:43:36.083Z,47.90
2018-03-04T13:46:02.359Z,49.20
2018-03-04T13:48:29.399Z,49.70
2018-03-04T13:50:55.757Z,49.60
2018-03-04T13:53:22.715Z,49.40
2018-03-04T13:55:48.949Z,49.30
2018-03-04T13:58:15.241Z,48.50
2018-03-04T14:00:42.227Z,48.90
2018-03-04T14:03:08.573Z,49.30
2018-03-04T14:05:34.823Z,49.70
2018-03-04T14:08:01.810Z,50.50
2018-03-04T14:10:28.786Z,50.70
2018-03-04T14:12:55.820Z,50.70
2018-03-04T14:15:22.102Z,50.70
2018-03-04T14:27:33.684Z,49.60
2018-03-04T14:30:00.774Z,50.70
2018-03-04T14:32:27.039Z,50.70
2018-03-04T14:34:53.322Z,51.20
2018-03-04T14:37:19.564Z,49.80
2018-03-04T14:39:45.870Z,49.60
2018-03-04T14:42:12.842Z,50.70
2018-03-04T14:44:39.105Z,50.20
2018-03-04T14:47:05.350Z,50.70
2018-03-04T14:49:31.652Z,51.90
2018-03-04T14:51:57.961Z,52.70
2018-03-04T14:54:24.231Z,53.20
2018-03-04T14:56:50.540Z,54.20
2018-03-04T14:59:16.814Z,55.00
2018-03-04T15:01:43.119Z,55.00
2018-03-04T15:04:09.529Z,55.30
2018-03-04T15:06:35.748Z,55.90
2018-03-04T15:09:02.434Z,56.50
2018-03-04T15:11:29.449Z,58.00
2018-03-04T15:13:55.703Z,57.10
2018-03-04T15:16:21.990Z,57.60
2018-03-04T15:18:49.075Z,58.10
2018-03-04T15:21:15.353Z,58.10
2018-03-04T15:23:41.712Z,58.30
2018-03-04T15:26:07.948Z,58.80
2018-03-04T15:28:35.132Z,58.80
2018-03-04T15:31:01.377Z,58.80
2018-03-04T15:33:28.424Z,58.70
2018-03-04T15:35:55.385Z,59.00
2018-03-04T15:38:21.638Z,59.00
2018-03-04T15:40:48.960Z,59.30
2018-03-04T15:43:15.765Z,59.80
2018-03-04T15:45:42.881Z,60.70
2018-03-04T15:48:09.171Z,60.30
2018-03-04T15:50:35.418Z,60.10
2018-03-04T15:53:01.686Z,61.10
2018-03-04T15:55:27.859Z,63.00
2018-03-04T15:57:54.998Z,61.80
2018-03-04T16:00:21.264Z,61.40
2018-03-04T16:02:47.484Z,60.10
2018-03-04T16:05:14.681Z,59.70
2018-03-04T16:07:40.909Z,58.80
2018-03-04T16:19:52.448Z,58.80
2018-03-04T16:32:05.514Z,60.80
2018-03-04T16:34:31.804Z,62.80
2018-03-04T16:36:59.183Z,62.80
2018-03-04T16:39:25.530Z,63.10
2018-03-04T16:41:51.747Z,63.10
2018-03-04T16:54:04.212Z,64.10
2018-03-04T16:56:32.228Z,64.40
2018-03-04T16:58:58.582Z,65.10
2018-03-04T17:01:24.862Z,65.20
2018-03-04T17:13:38.360Z,66.30
2018-03-04T17:16:04.691Z,66.10
2018-03-04T17:18:32.591Z,66.10
2018-03-04T17:20:59.133Z,66.20
2018-03-04T17:23:26.593Z,66.30
2018-03-04T17:25:53.277Z,66.70
2018-03-04T17:28:21.971Z,66.30
2018-03-04T17:30:48.413Z,66.30
2018-03-04T17:33:14.673Z,66.80
2018-03-04T17:35:40.936Z,66.50
2018-03-04T17:38:07.171Z,66.70
2018-03-04T17:40:34.880Z,66.80
2018-03-04T17:43:01.213Z,67.20
2018-03-04T17:45:28.247Z,67.50
2018-03-04T17:47:56.590Z,68.00
2018-03-04T17:50:22.908Z,68.00
2018-03-04T17:52:49.162Z,67.70
2018-03-04T17:55:15.486Z,68.00
2018-03-04T17:57:41.833Z,68.50
2018-03-04T18:00:08.061Z,68.10
2018-03-04T18:02:35.215Z,68.80
2018-03-04T18:05:03.025Z,69.00
2018-03-04T18:07:29.340Z,68.40
2018-03-04T18:09:56.702Z,68.70
2018-03-04T18:12:24.810Z,68.80
2018-03-04T18:14:51.889Z,68.50
2018-03-04T18:17:19.401Z,68.60
2018-03-04T18:19:45.743Z,69.60
2018-03-04T18:22:12.956Z,68.50
2018-03-04T18:24:40.331Z,68.80
2018-03-04T18:27:07.389Z,69.30
2018-03-04T18:29:33.672Z,68.70
2018-03-04T18:32:00.052Z,69.40
2018-03-04T18:34:27.184Z,69.10
2018-03-04T18:36:54.437Z,69.10
2018-03-04T18:39:20.728Z,69.10
2018-03-04T18:41:47.760Z,69.00
2018-03-04T18:44:15.372Z,69.10
2018-03-04T18:46:41.602Z,69.20
2018-03-04T18:49:09.206Z,69.30
2018-03-04T18:51:35.408Z,69.80
2018-03-04T18:54:01.726Z,69.90
2018-03-04T18:56:28.880Z,69.30
2018-03-04T18:58:56.104Z,69.90
2018-03-04T19:01:23.593Z,70.10
2018-03-04T19:03:49.972Z,70.20
2018-03-04T19:06:17.282Z,70.20
2018-03-04T19:08:46.050Z,69.80
2018-03-04T19:11:14.232Z,69.70
2018-03-04T19:13:41.288Z,69.80
2018-03-04T19:16:08.386Z,70.30
2018-03-04T19:18:35.829Z,69.70
2018-03-04T19:21:02.511Z,69.50
2018-03-04T19:23:30.348Z,69.50
2018-03-04T19:25:56.687Z,69.40
2018-03-04T19:28:23.907Z,69.60
2018-03-04T19:30:50.814Z,69.20
2018-03-04T19:33:17.334Z,69.40
2018-03-04T19:35:45.220Z,70.70
2018-03-04T19:38:13.425Z,70.30
2018-03-04T19:40:39.796Z,69.60
2018-03-04T19:43:07.058Z,69.70
2018-03-04T19:45:33.644Z,70.20
2018-03-04T19:48:00.032Z,69.90
2018-03-04T19:50:29.392Z,70.80
2018-03-04T19:52:59.598Z,69.80
2018-03-04T19:55:26.671Z,70.70
2018-03-04T19:57:53.681Z,70.20
2018-03-04T20:00:20.950Z,70.30
2018-03-04T20:02:47.617Z,70.30
2018-03-04T20:05:14.860Z,70.50
2018-03-04T20:07:41.256Z,70.40
2018-03-04T20:19:52.707Z,70.50
2018-03-04T20:22:19.735Z,70.60
2018-03-04T20:24:46.920Z,72.00
2018-03-04T20:27:14.448Z,70.60
2018-03-04T20:29:41.371Z,70.60
2018-03-04T20:32:10.840Z,70.50
2018-03-04T20:34:37.971Z,71.10
2018-03-04T20:37:04.227Z,70.60
2018-03-04T20:39:30.516Z,70.80
2018-03-04T20:41:58.604Z,71.20
2018-03-04T20:44:24.897Z,70.70
2018-03-04T20:46:51.224Z,70.90
2018-03-04T20:49:18.776Z,70.70
2018-03-04T20:51:45.993Z,71.40
2018-03-04T20:54:14.020Z,71.10
2018-03-04T20:56:41.193Z,71.80
2018-03-04T20:59:09.964Z,71.70
2018-03-04T21:01:36.312Z,71.40
2018-03-04T21:04:03.005Z,72.00
2018-03-04T21:06:29.244Z,71.90
2018-03-04T21:08:55.718Z,71.90
2018-03-04T21:11:22.082Z,72.50
2018-03-04T21:13:49.801Z,72.50
2018-03-04T21:16:17.489Z,73.10
2018-03-04T21:18:43.812Z,73.20
2018-03-04T21:21:11.086Z,73.50
2018-03-04T21:23:37.341Z,73.80
2018-03-04T21:26:03.660Z,74.80
2018-03-04T21:28:30.503Z,74.50
2018-03-04T21:30:57.773Z,75.70
2018-03-04T21:33:24.102Z,76.00
2018-03-04T21:35:51.368Z,76.60
2018-03-04T21:38:18.992Z,77.00
2018-03-04T21:40:46.212Z,77.00
2018-03-04T21:43:13.333Z,77.30
2018-03-04T21:45:39.912Z,78.40
2018-03-04T21:48:06.196Z,78.90
2018-03-04T21:50:32.675Z,79.20
2018-03-04T21:52:59.018Z,79.60
2018-03-04T21:55:26.066Z,79.60
2018-03-04T21:57:53.608Z,80.90
2018-03-04T22:00:23.102Z,81.50
2018-03-04T22:02:50.516Z,80.90
2018-03-04T22:05:17.107Z,81.60
2018-03-04T22:07:44.796Z,82.30
2018-03-04T22:10:12.146Z,81.50
2018-03-04T22:12:38.567Z,81.90
2018-03-04T22:15:05.554Z,83.40
2018-03-04T22:17:32.552Z,83.30
2018-03-04T22:19:59.697Z,84.50
2018-03-04T22:22:26.287Z,84.00
2018-03-04T22:24:52.523Z,83.60
2018-03-04T22:27:18.934Z,84.10
2018-03-04T22:29:45.216Z,84.50
2018-03-04T22:32:11.541Z,85.00
2018-03-04T22:34:37.973Z,84.60
2018-03-04T22:37:06.881Z,85.10
2018-03-04T22:39:34.041Z,85.20
2018-03-04T22:42:01.451Z,85.10
2018-03-04T22:44:29.519Z,84.80
2018-03-04T22:46:55.854Z,84.80
2018-03-04T22:49:23.871Z,85.30
2018-03-04T22:51:51.108Z,85.60
2018-03-04T22:54:17.449Z,85.50
2018-03-04T22:56:44.507Z,86.60
2018-03-04T22:59:11.499Z,87.30
2018-03-04T23:01:37.753Z,87.20
2018-03-04T23:04:04.010Z,85.60
2018-03-04T23:06:30.998Z,86.30
2018-03-04T23:08:57.330Z,86.70
2018-03-04T23:11:25.432Z,85.90
2018-03-04T23:13:51.633Z,86.50
2018-03-04T23:16:18.797Z,86.00
2018-03-04T23:18:52.774Z,86.60
2018-03-04T23:21:20.201Z,85.60
2018-03-04T23:23:47.663Z,86.40
2018-03-04T23:35:59.741Z,87.20
2018-03-04T23:38:25.967Z,87.20
2018-03-04T23:40:52.950Z,87.10
2018-03-04T23:43:20.473Z,87.10
2018-03-04T23:45:47.555Z,87.00
2018-03-04T23:48:13.777Z,87.70
2018-03-04T23:50:42.990Z,87.00
2018-03-04T23:53:09.296Z,87.00
2018-03-04T23:55:36.407Z,87.00
2018-03-04T23:58:06.062Z,87.50
